FNA226 BIAR-BIRK
Flight info
| Callsign | FNA226 |
|---|---|
| Flight time | N/A |
| Altitude | 20000 |
| Route | AKI1F AKI BIVM LUNDI METIL |
| Aircraft | BE20/L-SBGRY/S |
Departure
| Time | 2026-04-24 15:07 |
|---|---|
| Airport | Akureyri International Airport (BIAR) |
Arrival
| Time | N/A |
|---|---|
| Airport | Reykjavík Domestic Airport (BIRK) |
| Time | Latitude | Longitude | Altitude | Speed | Heading |
|---|---|---|---|---|---|
| 2026-04-24 15:01 | 65.65448 | -18.07482 | 17 ft | 0 kts | 26° |
| 2026-04-24 15:06 | 65.65449 | -18.07482 | 17 ft | 2 kts | 26° |
| 2026-04-24 15:06 | 65.65481 | -18.07293 | 16 ft | 19 kts | 85° |
| 2026-04-24 15:06 | 65.65560 | -18.07193 | 16 ft | 42 kts | 352° |
| 2026-04-24 15:06 | 65.66189 | -18.07295 | 66 ft | 126 kts | 355° |
| 2026-04-24 15:07 | 65.67129 | -18.07545 | 666 ft | 144 kts | 353° |
| 2026-04-24 15:07 | 65.68195 | -18.07800 | 1164 ft | 156 kts | 354° |
| 2026-04-24 15:07 | 65.69266 | -18.08172 | 1966 ft | 156 kts | 348° |
| 2026-04-24 15:07 | 65.70323 | -18.08899 | 2802 ft | 159 kts | 343° |
| 2026-04-24 15:08 | 65.71392 | -18.09683 | 3568 ft | 161 kts | 345° |
| 2026-04-24 15:08 | 65.72477 | -18.10403 | 4330 ft | 163 kts | 346° |
| 2026-04-24 15:08 | 65.73578 | -18.11153 | 5072 ft | 165 kts | 345° |
| 2026-04-24 15:08 | 65.74461 | -18.12901 | 5780 ft | 176 kts | 294° |
| 2026-04-24 15:09 | 65.74375 | -18.15865 | 6449 ft | 187 kts | 239° |
| 2026-04-24 15:09 | 65.73336 | -18.17678 | 7100 ft | 190 kts | 188° |
| 2026-04-24 15:09 | 65.72012 | -18.17661 | 7723 ft | 192 kts | 174° |
| 2026-04-24 15:09 | 65.70672 | -18.17362 | 8373 ft | 194 kts | 173° |
| 2026-04-24 15:10 | 65.69317 | -18.17066 | 9022 ft | 197 kts | 181° |
| 2026-04-24 15:10 | 65.67941 | -18.17408 | 9569 ft | 205 kts | 192° |
| 2026-04-24 15:10 | 65.66512 | -18.18246 | 9806 ft | 223 kts | 198° |
| 2026-04-24 15:10 | 65.64970 | -18.19416 | 9913 ft | 239 kts | 204° |
| 2026-04-24 15:11 | 65.63411 | -18.21105 | 9968 ft | 252 kts | 207° |
| 2026-04-24 15:11 | 65.61765 | -18.22784 | 9987 ft | 261 kts | 204° |
| 2026-04-24 15:11 | 65.60068 | -18.24488 | 9994 ft | 267 kts | 205° |
| 2026-04-24 15:11 | 65.58344 | -18.26266 | 9993 ft | 271 kts | 205° |
| 2026-04-24 15:12 | 65.56594 | -18.28032 | 9999 ft | 273 kts | 205° |
| 2026-04-24 15:12 | 65.53074 | -18.31600 | 10064 ft | 272 kts | 205° |
| 2026-04-24 15:12 | 65.51359 | -18.33337 | 10142 ft | 270 kts | 205° |
| 2026-04-24 15:13 | 65.49627 | -18.35088 | 10225 ft | 269 kts | 205° |
| 2026-04-24 15:13 | 65.47897 | -18.36834 | 10297 ft | 269 kts | 205° |
| 2026-04-24 15:13 | 65.46171 | -18.38579 | 10358 ft | 269 kts | 205° |
| 2026-04-24 15:13 | 65.44443 | -18.40316 | 10408 ft | 269 kts | 205° |
| 2026-04-24 15:14 | 65.42712 | -18.42059 | 10464 ft | 269 kts | 205° |
| 2026-04-24 15:14 | 65.40982 | -18.43793 | 10520 ft | 270 kts | 205° |
| 2026-04-24 15:14 | 65.39243 | -18.45541 | 10559 ft | 271 kts | 205° |
| 2026-04-24 15:14 | 65.37501 | -18.47279 | 10629 ft | 271 kts | 205° |
| 2026-04-24 15:15 | 65.35784 | -18.49001 | 10677 ft | 271 kts | 205° |
| 2026-04-24 15:15 | 65.34039 | -18.50743 | 10709 ft | 271 kts | 205° |
| 2026-04-24 15:15 | 65.32294 | -18.52481 | 10746 ft | 271 kts | 205° |
| 2026-04-24 15:15 | 65.30552 | -18.54214 | 10785 ft | 271 kts | 205° |
| 2026-04-24 15:16 | 65.28810 | -18.55949 | 10827 ft | 272 kts | 205° |
| 2026-04-24 15:16 | 65.27062 | -18.57681 | 10874 ft | 272 kts | 205° |
| 2026-04-24 15:16 | 65.25314 | -18.59416 | 10906 ft | 272 kts | 205° |
| 2026-04-24 15:16 | 65.23562 | -18.61147 | 10933 ft | 272 kts | 205° |
| 2026-04-24 15:17 | 65.21812 | -18.62881 | 10973 ft | 272 kts | 205° |
| 2026-04-24 15:17 | 65.20070 | -18.64533 | 11017 ft | 273 kts | 201° |
| 2026-04-24 15:17 | 65.18226 | -18.65757 | 11041 ft | 275 kts | 197° |
| 2026-04-24 15:17 | 65.16395 | -18.67007 | 11066 ft | 274 kts | 201° |
| 2026-04-24 15:18 | 65.14583 | -18.68414 | 11092 ft | 274 kts | 199° |
| 2026-04-24 15:18 | 65.12753 | -18.69709 | 11115 ft | 274 kts | 200° |
| 2026-04-24 15:18 | 65.10934 | -18.71071 | 11144 ft | 274 kts | 200° |
| 2026-04-24 15:18 | 65.09107 | -18.72401 | 11168 ft | 274 kts | 200° |
| 2026-04-24 15:19 | 65.07282 | -18.73736 | 11131 ft | 277 kts | 200° |
| 2026-04-24 15:19 | 65.05429 | -18.75100 | 11044 ft | 280 kts | 200° |
| 2026-04-24 15:19 | 65.03568 | -18.76452 | 11003 ft | 280 kts | 200° |
| 2026-04-24 15:19 | 65.01707 | -18.77805 | 10979 ft | 279 kts | 200° |
| 2026-04-24 15:20 | 64.99874 | -18.79139 | 10971 ft | 278 kts | 200° |
| 2026-04-24 15:20 | 64.98025 | -18.80480 | 10968 ft | 278 kts | 200° |
| 2026-04-24 15:20 | 64.96179 | -18.81822 | 10960 ft | 277 kts | 200° |
| 2026-04-24 15:20 | 64.94330 | -18.83160 | 10961 ft | 277 kts | 200° |
| 2026-04-24 15:21 | 64.92483 | -18.84496 | 10958 ft | 277 kts | 200° |
| 2026-04-24 15:21 | 64.90639 | -18.85829 | 10958 ft | 277 kts | 200° |
| 2026-04-24 15:21 | 64.88794 | -18.87158 | 10957 ft | 277 kts | 200° |
| 2026-04-24 15:21 | 64.86951 | -18.88487 | 10953 ft | 277 kts | 200° |
| 2026-04-24 15:22 | 64.85106 | -18.89812 | 10955 ft | 277 kts | 200° |
| 2026-04-24 15:22 | 64.83259 | -18.91139 | 10946 ft | 277 kts | 200° |
| 2026-04-24 15:22 | 64.81418 | -18.92463 | 10948 ft | 277 kts | 200° |
| 2026-04-24 15:23 | 64.77758 | -18.95078 | 10949 ft | 276 kts | 200° |
| 2026-04-24 15:23 | 64.74075 | -18.97707 | 10945 ft | 276 kts | 200° |
| 2026-04-24 15:23 | 64.72236 | -18.99016 | 10938 ft | 276 kts | 200° |
| 2026-04-24 15:24 | 64.66723 | -19.02933 | 10943 ft | 276 kts | 200° |
| 2026-04-24 15:25 | 64.63661 | -19.05096 | 10938 ft | 277 kts | 200° |
| 2026-04-24 15:25 | 64.59370 | -19.08122 | 10936 ft | 277 kts | 200° |
| 2026-04-24 15:26 | 64.53832 | -19.12018 | 10941 ft | 278 kts | 200° |
| 2026-04-24 15:27 | 64.48270 | -19.15911 | 10935 ft | 278 kts | 200° |
| 2026-04-24 15:27 | 64.42716 | -19.19785 | 10937 ft | 278 kts | 200° |
| 2026-04-24 15:28 | 64.35309 | -19.24921 | 10932 ft | 279 kts | 200° |
| 2026-04-24 15:29 | 64.31599 | -19.27486 | 10935 ft | 278 kts | 200° |
| 2026-04-24 15:30 | 64.26029 | -19.31313 | 10933 ft | 278 kts | 200° |
| 2026-04-24 15:31 | 64.19228 | -19.35974 | 10927 ft | 278 kts | 200° |
| 2026-04-24 15:32 | 64.11205 | -19.41441 | 10927 ft | 278 kts | 200° |
| 2026-04-24 15:33 | 64.03782 | -19.46465 | 10921 ft | 278 kts | 199° |
| 2026-04-24 15:33 | 63.98239 | -19.50204 | 10921 ft | 278 kts | 199° |
| 2026-04-24 15:34 | 63.94515 | -19.52704 | 10918 ft | 278 kts | 199° |
| 2026-04-24 15:35 | 63.88957 | -19.56428 | 10917 ft | 277 kts | 199° |
| 2026-04-24 15:35 | 63.85251 | -19.58896 | 10918 ft | 278 kts | 199° |
| 2026-04-24 15:35 | 63.83418 | -19.60112 | 10915 ft | 278 kts | 199° |
| 2026-04-24 15:36 | 63.81562 | -19.61352 | 10909 ft | 278 kts | 199° |
| 2026-04-24 15:36 | 63.77839 | -19.63820 | 10906 ft | 279 kts | 199° |
| 2026-04-24 15:36 | 63.75976 | -19.65056 | 10898 ft | 278 kts | 199° |
| 2026-04-24 15:37 | 63.74121 | -19.66278 | 10900 ft | 277 kts | 199° |
| 2026-04-24 15:37 | 63.72269 | -19.67503 | 10902 ft | 277 kts | 199° |
| 2026-04-24 15:37 | 63.71042 | -19.68310 | 10896 ft | 277 kts | 198° |
| 2026-04-24 15:37 | 63.68565 | -19.69944 | 10899 ft | 277 kts | 198° |
| 2026-04-24 15:38 | 63.66716 | -19.71155 | 10905 ft | 277 kts | 198° |
| 2026-04-24 15:38 | 63.64865 | -19.72377 | 10907 ft | 278 kts | 198° |
| 2026-04-24 15:38 | 63.63073 | -19.73550 | 10898 ft | 278 kts | 198° |
| 2026-04-24 15:38 | 63.61169 | -19.74792 | 10878 ft | 278 kts | 198° |
| 2026-04-24 15:39 | 63.59317 | -19.76012 | 10887 ft | 277 kts | 198° |
| 2026-04-24 15:39 | 63.57457 | -19.77218 | 10889 ft | 277 kts | 198° |
| 2026-04-24 15:39 | 63.55606 | -19.78431 | 10891 ft | 278 kts | 198° |
| 2026-04-24 15:39 | 63.53744 | -19.79644 | 10874 ft | 278 kts | 198° |
| 2026-04-24 15:40 | 63.51893 | -19.80842 | 10784 ft | 273 kts | 198° |
| 2026-04-24 15:40 | 63.50107 | -19.82031 | 9640 ft | 268 kts | 199° |
| 2026-04-24 15:40 | 63.48346 | -19.83142 | 8501 ft | 264 kts | 198° |
| 2026-04-24 15:40 | 63.46597 | -19.84286 | 7413 ft | 258 kts | 201° |
| 2026-04-24 15:41 | 63.45147 | -19.86481 | 6597 ft | 254 kts | 230° |
| 2026-04-24 15:41 | 63.43970 | -19.89410 | 6344 ft | 251 kts | 231° |
| 2026-04-24 15:41 | 63.42836 | -19.92346 | 5906 ft | 247 kts | 232° |
| 2026-04-24 15:41 | 63.41740 | -19.95282 | 5114 ft | 244 kts | 233° |
| 2026-04-24 15:42 | 63.40668 | -19.98208 | 4297 ft | 244 kts | 232° |
| 2026-04-24 15:42 | 63.39615 | -20.01188 | 3496 ft | 244 kts | 238° |
| 2026-04-24 15:42 | 63.39114 | -20.04755 | 2733 ft | 243 kts | 273° |
| 2026-04-24 15:42 | 63.39256 | -20.07250 | 2456 ft | 248 kts | 283° |
| 2026-04-24 15:43 | 63.39616 | -20.10867 | 2233 ft | 227 kts | 290° |
| 2026-04-24 15:43 | 63.40136 | -20.14003 | 1995 ft | 207 kts | 293° |
| 2026-04-24 15:43 | 63.40563 | -20.16865 | 1689 ft | 184 kts | 294° |
| 2026-04-24 15:43 | 63.40985 | -20.19417 | 1377 ft | 167 kts | 295° |
| 2026-04-24 15:44 | 63.41398 | -20.21691 | 1039 ft | 153 kts | 297° |
| 2026-04-24 15:44 | 63.41799 | -20.23684 | 766 ft | 126 kts | 294° |
| 2026-04-24 15:44 | 63.42077 | -20.25332 | 540 ft | 102 kts | 293° |
| 2026-04-24 15:44 | 63.42305 | -20.26727 | 345 ft | 87 kts | 294° |
| 2026-04-24 15:45 | 63.42498 | -20.27868 | 310 ft | 56 kts | 290° |
| 2026-04-24 15:45 | 63.42553 | -20.28064 | 311 ft | 14 kts | 34° |
| 2026-04-24 15:45 | 63.42482 | -20.27753 | 310 ft | 41 kts | 114° |
| 2026-04-24 15:45 | 63.42386 | -20.27189 | 318 ft | 22 kts | 106° |
| 2026-04-24 15:46 | 63.42470 | -20.27054 | 325 ft | 22 kts | 20° |
| 2026-04-24 15:46 | 63.42476 | -20.26956 | 322 ft | 4 kts | 230° |
| 2026-04-24 15:46 | 63.42475 | -20.26957 | 322 ft | 0 kts | 236° |
| 2026-04-24 15:49 | 63.42458 | -20.27020 | 323 ft | 10 kts | 238° |
| 2026-04-24 15:49 | 63.42380 | -20.27151 | 318 ft | 8 kts | 253° |
| 2026-04-24 15:49 | 63.42432 | -20.27477 | 312 ft | 73 kts | 291° |
| 2026-04-24 15:49 | 63.42680 | -20.29117 | 523 ft | 135 kts | 290° |
| 2026-04-24 15:50 | 63.43178 | -20.30997 | 1202 ft | 150 kts | 313° |
| 2026-04-24 15:50 | 63.43906 | -20.32715 | 1961 ft | 156 kts | 319° |
| 2026-04-24 15:50 | 63.44761 | -20.34492 | 2451 ft | 172 kts | 322° |
| 2026-04-24 15:50 | 63.45652 | -20.36224 | 3304 ft | 168 kts | 323° |
| 2026-04-24 15:51 | 63.46522 | -20.37902 | 4189 ft | 165 kts | 321° |
| 2026-04-24 15:51 | 63.47412 | -20.39771 | 4675 ft | 182 kts | 313° |
| 2026-04-24 15:51 | 63.48247 | -20.41925 | 5337 ft | 183 kts | 310° |
| 2026-04-24 15:51 | 63.49085 | -20.44021 | 5985 ft | 183 kts | 312° |
| 2026-04-24 15:52 | 63.49952 | -20.46114 | 6630 ft | 184 kts | 311° |
| 2026-04-24 15:52 | 63.50820 | -20.48237 | 7211 ft | 185 kts | 311° |
| 2026-04-24 15:52 | 63.51697 | -20.50379 | 7790 ft | 187 kts | 311° |
| 2026-04-24 15:52 | 63.52581 | -20.52544 | 8362 ft | 189 kts | 311° |
| 2026-04-24 15:53 | 63.53475 | -20.54742 | 8934 ft | 192 kts | 311° |
| 2026-04-24 15:53 | 63.54378 | -20.56969 | 9480 ft | 195 kts | 311° |
| 2026-04-24 15:53 | 63.55325 | -20.59301 | 9779 ft | 210 kts | 311° |
| 2026-04-24 15:53 | 63.56340 | -20.61815 | 9909 ft | 224 kts | 311° |
| 2026-04-24 15:54 | 63.57422 | -20.64488 | 9969 ft | 236 kts | 312° |
| 2026-04-24 15:54 | 63.58533 | -20.67225 | 9996 ft | 244 kts | 312° |
| 2026-04-24 15:54 | 63.59686 | -20.70086 | 10011 ft | 249 kts | 312° |
| 2026-04-24 15:54 | 63.60858 | -20.72999 | 10020 ft | 253 kts | 311° |
| 2026-04-24 15:55 | 63.61933 | -20.76134 | 10092 ft | 252 kts | 311° |
| 2026-04-24 15:55 | 63.63130 | -20.79117 | 9872 ft | 263 kts | 315° |
| 2026-04-24 15:55 | 63.64372 | -20.82079 | 9913 ft | 258 kts | 311° |
| 2026-04-24 15:55 | 63.65549 | -20.85101 | 9992 ft | 256 kts | 314° |
| 2026-04-24 15:56 | 63.66618 | -20.88264 | 10012 ft | 256 kts | 294° |
| 2026-04-24 15:56 | 63.67255 | -20.92003 | 10035 ft | 256 kts | 291° |
| 2026-04-24 15:56 | 63.67865 | -20.95782 | 10043 ft | 257 kts | 290° |
| 2026-04-24 15:56 | 63.68273 | -20.98292 | 10049 ft | 257 kts | 293° |